Time;durP1;ratioP1;P1;durP2;ratioP2;P2;SDS_P1;SDS_P2;PMS_P1;PMS_P2;Temp;Humidity;BMP_temperature;BMP_pressure;BME280_temperature;BME280_humidity;BME280_pressure;Samples;Min_cycle;Max_cycle;Signal;HPM_P1;HPM_P2
2023/09/24 00:00:48;;;;;;;0.10;0.10;;;;;;;;;;5108088;28;20504;-54
2023/09/24 00:03:14;;;;;;;0.10;0.10;;;;;;;;;;5109197;28;20054;-55
2023/09/24 00:05:41;;;;;;;0.10;0.10;;;;;;;;;;5108952;28;20047;-55
2023/09/24 00:08:08;;;;;;;0.10;0.10;;;;;;;;;;5108844;28;20464;-54
2023/09/24 00:10:34;;;;;;;0.10;0.10;;;;;;;;;;5108065;28;20401;-54
2023/09/24 00:12:59;;;;;;;0.10;0.10;;;;;;;;;;5109022;28;20052;-54
2023/09/24 00:15:27;;;;;;;0.10;0.10;;;;;;;;;;5108408;28;20059;-54
2023/09/24 00:17:52;;;;;;;0.20;0.20;;;;;;;;;;5108720;28;20070;-54
2023/09/24 00:20:19;;;;;;;0.10;0.10;;;;;;;;;;5107967;28;20127;-53
2023/09/24 00:22:47;;;;;;;0.10;0.10;;;;;;;;;;5108135;28;20070;-54
2023/09/24 00:25:14;;;;;;;0.10;0.10;;;;;;;;;;5108297;28;20051;-54
2023/09/24 00:27:40;;;;;;;0.10;0.10;;;;;;;;;;5108511;28;20043;-54
2023/09/24 00:30:06;;;;;;;0.10;0.10;;;;;;;;;;5107722;28;20043;-55
2023/09/24 00:32:32;;;;;;;0.10;0.10;;;;;;;;;;5107808;28;20456;-54
2023/09/24 00:34:58;;;;;;;0.10;0.10;;;;;;;;;;5107874;28;20079;-54
2023/09/24 00:37:24;;;;;;;0.10;0.10;;;;;;;;;;5108068;28;20051;-54
2023/09/24 00:39:50;;;;;;;0.10;0.10;;;;;;;;;;5106573;28;20043;-55
2023/09/24 00:42:15;;;;;;;0.10;0.10;;;;;;;;;;5108033;28;20052;-54
2023/09/24 00:44:41;;;;;;;0.10;0.10;;;;;;;;;;5107899;28;20411;-54
2023/09/24 00:47:08;;;;;;;0.10;0.10;;;;;;;;;;5108469;28;20306;-54
2023/09/24 00:49:34;;;;;;;0.10;0.10;;;;;;;;;;5106570;28;20082;-54
2023/09/24 00:52:00;;;;;;;0.10;0.10;;;;;;;;;;5106783;28;20039;-54
2023/09/24 00:54:26;;;;;;;0.10;0.10;;;;;;;;;;5087560;28;20465;-54
2023/09/24 00:56:52;;;;;;;0.10;0.10;;;;;;;;;;5107651;28;20040;-54
2023/09/24 00:59:18;;;;;;;0.10;0.10;;;;;;;;;;5099794;28;20090;-54
2023/09/24 01:01:44;;;;;;;0.10;0.10;;;;;;;;;;5107107;28;20044;-54
2023/09/24 01:04:11;;;;;;;0.10;0.10;;;;;;;;;;5107914;28;20347;-54
2023/09/24 01:06:37;;;;;;;0.10;0.10;;;;;;;;;;5107591;28;20051;-54
2023/09/24 01:09:05;;;;;;;0.10;0.10;;;;;;;;;;5100016;28;20452;-54
2023/09/24 01:11:33;;;;;;;0.10;0.10;;;;;;;;;;5107018;28;20048;-54
2023/09/24 01:13:59;;;;;;;0.10;0.10;;;;;;;;;;5106148;28;20116;-54
2023/09/24 01:16:24;;;;;;;0.10;0.10;;;;;;;;;;5107508;28;20040;-54
2023/09/24 01:18:53;;;;;;;0.10;0.10;;;;;;;;;;5098857;28;20082;-54
2023/09/24 01:21:18;;;;;;;0.10;0.10;;;;;;;;;;5106837;28;20083;-54
2023/09/24 01:23:45;;;;;;;0.10;0.10;;;;;;;;;;5107044;28;20078;-54
2023/09/24 01:26:14;;;;;;;0.10;0.10;;;;;;;;;;5106825;28;20176;-54
2023/09/24 01:28:40;;;;;;;0.10;0.10;;;;;;;;;;5098100;28;20058;-54
2023/09/24 01:31:06;;;;;;;0.10;0.10;;;;;;;;;;5088028;28;20043;-55
2023/09/24 01:33:32;;;;;;;0.10;0.10;;;;;;;;;;5106072;28;20052;-54
2023/09/24 01:35:58;;;;;;;0.10;0.10;;;;;;;;;;5106631;28;20098;-54
2023/09/24 01:38:24;;;;;;;0.10;0.10;;;;;;;;;;5099632;28;20434;-54
2023/09/24 01:40:51;;;;;;;0.10;0.10;;;;;;;;;;5105434;28;20123;-54
2023/09/24 01:43:17;;;;;;;0.10;0.10;;;;;;;;;;5106916;28;20059;-54
2023/09/24 01:45:43;;;;;;;0.10;0.10;;;;;;;;;;5106226;28;20138;-54
2023/09/24 01:48:09;;;;;;;0.10;0.10;;;;;;;;;;5100292;28;20048;-54
2023/09/24 01:50:36;;;;;;;0.10;0.10;;;;;;;;;;5103981;28;20368;-54
2023/09/24 01:53:02;;;;;;;0.10;0.10;;;;;;;;;;5105543;28;20059;-54
2023/09/24 01:55:28;;;;;;;0.10;0.10;;;;;;;;;;5105759;28;20058;-54
2023/09/24 01:57:55;;;;;;;0.10;0.10;;;;;;;;;;5100704;28;20075;-54
2023/09/24 02:00:25;;;;;;;0.10;0.10;;;;;;;;;;5100945;28;20442;-54
2023/09/24 02:02:50;;;;;;;0.20;0.20;;;;;;;;;;5106516;28;20403;-54
2023/09/24 02:05:17;;;;;;;0.10;0.10;;;;;;;;;;5106792;28;20044;-54
2023/09/24 02:07:43;;;;;;;0.10;0.10;;;;;;;;;;5103841;28;20073;-54
2023/09/24 02:10:08;;;;;;;0.10;0.10;;;;;;;;;;5099755;28;20047;-54
2023/09/24 02:12:36;;;;;;;0.10;0.10;;;;;;;;;;5106214;28;20400;-54
2023/09/24 02:15:05;;;;;;;0.10;0.10;;;;;;;;;;5106188;28;20108;-54
2023/09/24 02:17:31;;;;;;;0.10;0.10;;;;;;;;;;5105785;28;20047;-54
2023/09/24 02:19:57;;;;;;;0.10;0.10;;;;;;;;;;5098057;28;20070;-54
2023/09/24 02:22:22;;;;;;;0.10;0.10;;;;;;;;;;5105932;28;20059;-54
2023/09/24 02:24:48;;;;;;;0.10;0.10;;;;;;;;;;5107446;28;20521;-54
2023/09/24 02:27:13;;;;;;;0.10;0.10;;;;;;;;;;5107092;28;20420;-54
2023/09/24 02:29:39;;;;;;;0.10;0.10;;;;;;;;;;5105965;28;20503;-54
2023/09/24 02:32:06;;;;;;;0.10;0.10;;;;;;;;;;5106386;28;20050;-54
2023/09/24 02:34:31;;;;;;;0.10;0.10;;;;;;;;;;5106095;28;20054;-54
2023/09/24 02:36:57;;;;;;;0.10;0.10;;;;;;;;;;5103705;28;20441;-54
2023/09/24 02:39:22;;;;;;;0.10;0.10;;;;;;;;;;5102043;28;20488;-54
2023/09/24 02:41:49;;;;;;;0.10;0.10;;;;;;;;;;5106039;28;20050;-54
2023/09/24 02:44:17;;;;;;;0.10;0.10;;;;;;;;;;5107335;28;20062;-54
2023/09/24 02:46:44;;;;;;;0.10;0.10;;;;;;;;;;5106519;28;20043;-54
2023/09/24 02:49:10;;;;;;;0.10;0.10;;;;;;;;;;5105991;28;20132;-54
2023/09/24 02:51:35;;;;;;;0.10;0.10;;;;;;;;;;5106437;28;20279;-54
2023/09/24 02:54:02;;;;;;;0.10;0.10;;;;;;;;;;5104822;28;20044;-54
2023/09/24 02:56:28;;;;;;;0.10;0.10;;;;;;;;;;5106394;28;20047;-54
2023/09/24 02:58:54;;;;;;;0.10;0.10;;;;;;;;;;5105641;28;20051;-55
2023/09/24 03:01:20;;;;;;;0.10;0.10;;;;;;;;;;5105451;28;20070;-54
2023/09/24 03:03:45;;;;;;;0.10;0.10;;;;;;;;;;5105796;28;20051;-54
2023/09/24 03:06:13;;;;;;;0.10;0.10;;;;;;;;;;5106211;28;20491;-54
2023/09/24 03:08:38;;;;;;;0.10;0.10;;;;;;;;;;5107703;28;20054;-54
2023/09/24 03:11:13;;;;;;;0.10;0.10;;;;;;;;;;5109512;28;20288;-54
2023/09/24 03:13:39;;;;;;;0.10;0.10;;;;;;;;;;5109150;28;20522;-54
2023/09/24 03:16:05;;;;;;;0.10;0.10;;;;;;;;;;5109482;28;20087;-54
2023/09/24 03:18:32;;;;;;;0.10;0.10;;;;;;;;;;5109956;28;20048;-54
2023/09/24 03:20:57;;;;;;;0.10;0.10;;;;;;;;;;5109318;28;20059;-54
2023/09/24 03:23:24;;;;;;;0.10;0.10;;;;;;;;;;5109005;28;20168;-54
2023/09/24 03:25:49;;;;;;;0.10;0.10;;;;;;;;;;5109721;28;20130;-54
2023/09/24 03:28:15;;;;;;;0.20;0.20;;;;;;;;;;5101563;28;20495;-54
2023/09/24 03:30:41;;;;;;;0.10;0.10;;;;;;;;;;5104554;28;20067;-55
2023/09/24 03:33:06;;;;;;;0.10;0.10;;;;;;;;;;5109201;28;20411;-54
2023/09/24 03:35:32;;;;;;;0.10;0.10;;;;;;;;;;5109371;28;20495;-54
2023/09/24 03:37:59;;;;;;;0.10;0.10;;;;;;;;;;5110315;28;20412;-54
2023/09/24 03:40:25;;;;;;;0.10;0.10;;;;;;;;;;5101114;28;20377;-54
2023/09/24 03:42:50;;;;;;;0.10;0.10;;;;;;;;;;5109391;28;20457;-54
2023/09/24 03:45:17;;;;;;;0.10;0.10;;;;;;;;;;5109498;28;20047;-54
2023/09/24 03:47:43;;;;;;;0.20;0.20;;;;;;;;;;5106062;28;20058;-54
2023/09/24 03:50:13;;;;;;;0.10;0.10;;;;;;;;;;5099071;28;20082;-54
2023/09/24 03:52:41;;;;;;;0.10;0.10;;;;;;;;;;5108665;28;20116;-54
2023/09/24 03:55:06;;;;;;;0.10;0.10;;;;;;;;;;5108902;28;20055;-54
2023/09/24 03:57:32;;;;;;;0.10;0.10;;;;;;;;;;5107322;28;20067;-54
2023/09/24 03:59:58;;;;;;;0.10;0.10;;;;;;;;;;5096095;28;20074;-54
2023/09/24 04:02:24;;;;;;;0.10;0.10;;;;;;;;;;5109038;28;20062;-54
2023/09/24 04:04:50;;;;;;;0.10;0.10;;;;;;;;;;5109369;28;20052;-54
2023/09/24 04:07:16;;;;;;;0.10;0.10;;;;;;;;;;5109087;28;20475;-54
2023/09/24 04:09:42;;;;;;;0.10;0.10;;;;;;;;;;5108787;28;20059;-54
2023/09/24 04:12:08;;;;;;;0.10;0.10;;;;;;;;;;5108644;28;20083;-53
2023/09/24 04:14:33;;;;;;;0.10;0.10;;;;;;;;;;5107860;28;20043;-54
2023/09/24 04:16:59;;;;;;;0.10;0.10;;;;;;;;;;5108668;28;20054;-54
2023/09/24 04:19:25;;;;;;;0.10;0.10;;;;;;;;;;5094029;28;20059;-54
2023/09/24 04:21:51;;;;;;;0.20;0.20;;;;;;;;;;5107412;28;20361;-55
2023/09/24 04:24:17;;;;;;;0.10;0.10;;;;;;;;;;5107793;28;20117;-55
2023/09/24 04:26:45;;;;;;;0.10;0.10;;;;;;;;;;5108771;28;20056;-55
2023/09/24 04:29:11;;;;;;;0.10;0.10;;;;;;;;;;5093234;28;20056;-54
2023/09/24 04:31:37;;;;;;;0.10;0.10;;;;;;;;;;5107391;28;20048;-54
2023/09/24 04:34:02;;;;;;;0.10;0.10;;;;;;;;;;5106943;28;20059;-54
2023/09/24 04:36:29;;;;;;;0.10;0.10;;;;;;;;;;5106949;28;20047;-54
2023/09/24 04:38:54;;;;;;;0.10;0.10;;;;;;;;;;5100840;28;20060;-54
2023/09/24 04:41:20;;;;;;;0.30;0.30;;;;;;;;;;5105870;28;20043;-54
2023/09/24 04:43:47;;;;;;;0.10;0.10;;;;;;;;;;5107804;28;20047;-54
2023/09/24 04:46:13;;;;;;;0.10;0.10;;;;;;;;;;5107469;28;20086;-54
2023/09/24 04:48:38;;;;;;;0.10;0.10;;;;;;;;;;5102622;28;20425;-54
2023/09/24 04:51:04;;;;;;;0.10;0.10;;;;;;;;;;5107128;28;20048;-54
2023/09/24 04:53:30;;;;;;;0.10;0.10;;;;;;;;;;5106279;28;20512;-54
2023/09/24 04:55:56;;;;;;;0.10;0.10;;;;;;;;;;5106921;28;20043;-54
2023/09/24 04:58:22;;;;;;;0.10;0.10;;;;;;;;;;5098374;28;20080;-54
2023/09/24 05:00:48;;;;;;;0.10;0.10;;;;;;;;;;5100094;28;20101;-54
2023/09/24 05:03:13;;;;;;;0.20;0.20;;;;;;;;;;5107261;28;20134;-54
2023/09/24 05:05:41;;;;;;;0.10;0.10;;;;;;;;;;5107844;28;20047;-54
2023/09/24 05:08:07;;;;;;;0.10;0.10;;;;;;;;;;5107272;28;20051;-54
2023/09/24 05:10:33;;;;;;;0.20;0.20;;;;;;;;;;5106756;28;20821;-54
2023/09/24 05:12:58;;;;;;;0.10;0.10;;;;;;;;;;5107650;28;20451;-54
2023/09/24 05:15:24;;;;;;;0.10;0.10;;;;;;;;;;5107023;28;20126;-54
2023/09/24 05:17:49;;;;;;;0.10;0.10;;;;;;;;;;5107044;28;20535;-54
2023/09/24 05:20:15;;;;;;;0.10;0.10;;;;;;;;;;5106853;28;20074;-54
2023/09/24 05:22:41;;;;;;;0.10;0.10;;;;;;;;;;5106234;28;20532;-54
2023/09/24 05:25:07;;;;;;;0.10;0.10;;;;;;;;;;5107316;28;20051;-54
2023/09/24 05:27:33;;;;;;;0.10;0.10;;;;;;;;;;5106960;28;20051;-54
2023/09/24 05:29:59;;;;;;;0.10;0.10;;;;;;;;;;5106382;28;20132;-54
2023/09/24 05:32:25;;;;;;;0.10;0.10;;;;;;;;;;5107704;28;20055;-54
2023/09/24 05:34:52;;;;;;;0.10;0.10;;;;;;;;;;5106807;28;20050;-54
2023/09/24 05:37:18;;;;;;;0.17;0.17;;;;;;;;;;5114902;28;20502;-54
2023/09/24 05:39:43;;;;;;;0.13;0.13;;;;;;;;;;5091473;28;20047;-54
2023/09/24 05:42:09;;;;;;;0.10;0.10;;;;;;;;;;5106730;28;20059;-54
2023/09/24 05:44:34;;;;;;;0.20;0.20;;;;;;;;;;5106669;28;20058;-54
2023/09/24 05:47:00;;;;;;;0.10;0.10;;;;;;;;;;5106616;28;20044;-54
2023/09/24 05:49:26;;;;;;;0.10;0.10;;;;;;;;;;5106214;28;20051;-54
2023/09/24 05:51:51;;;;;;;0.10;0.10;;;;;;;;;;5106680;28;20045;-54
2023/09/24 05:54:17;;;;;;;0.13;0.13;;;;;;;;;;5106826;28;20052;-54
2023/09/24 05:56:43;;;;;;;0.10;0.10;;;;;;;;;;5107176;28;20043;-54
2023/09/24 05:59:09;;;;;;;0.10;0.10;;;;;;;;;;5092004;28;20439;-54
2023/09/24 06:01:35;;;;;;;0.10;0.10;;;;;;;;;;5104971;28;20058;-54
2023/09/24 06:04:00;;;;;;;0.10;0.10;;;;;;;;;;5107161;28;20087;-54
2023/09/24 06:06:26;;;;;;;0.10;0.10;;;;;;;;;;5108143;28;20101;-54
2023/09/24 06:08:53;;;;;;;0.10;0.10;;;;;;;;;;5094341;28;20139;-55
2023/09/24 06:11:18;;;;;;;0.10;0.10;;;;;;;;;;5103062;28;20531;-54
2023/09/24 06:13:44;;;;;;;0.10;0.10;;;;;;;;;;5106488;28;20052;-54
2023/09/24 06:16:09;;;;;;;0.10;0.10;;;;;;;;;;5106642;28;20054;-54
2023/09/24 06:18:35;;;;;;;0.10;0.10;;;;;;;;;;5106763;28;20147;-54
2023/09/24 06:21:02;;;;;;;0.15;0.15;;;;;;;;;;5105662;28;20074;-55
2023/09/24 06:23:28;;;;;;;0.10;0.10;;;;;;;;;;5106420;28;20329;-54
2023/09/24 06:25:54;;;;;;;0.10;0.10;;;;;;;;;;5107610;28;20405;-54
2023/09/24 06:28:20;;;;;;;0.10;0.10;;;;;;;;;;5106416;28;20104;-54
2023/09/24 06:30:45;;;;;;;0.10;0.10;;;;;;;;;;5105471;28;20078;-54
2023/09/24 06:33:11;;;;;;;0.10;0.10;;;;;;;;;;5106260;28;20499;-54
2023/09/24 06:35:38;;;;;;;0.10;0.10;;;;;;;;;;5105425;28;20094;-54
2023/09/24 06:38:04;;;;;;;0.10;0.10;;;;;;;;;;5102833;28;20079;-55
2023/09/24 06:40:29;;;;;;;0.10;0.10;;;;;;;;;;5093166;28;20052;-54
2023/09/24 06:42:55;;;;;;;0.20;0.20;;;;;;;;;;5105192;28;20063;-54
2023/09/24 06:45:21;;;;;;;0.10;0.10;;;;;;;;;;5105847;28;20418;-54
2023/09/24 06:47:47;;;;;;;0.10;0.10;;;;;;;;;;5105653;28;20447;-54
2023/09/24 06:50:12;;;;;;;0.10;0.10;;;;;;;;;;5104505;28;20051;-54
2023/09/24 06:52:39;;;;;;;0.13;0.13;;;;;;;;;;5104604;28;20059;-54
2023/09/24 06:55:08;;;;;;;0.20;0.20;;;;;;;;;;5104554;28;20549;-54
2023/09/24 06:57:35;;;;;;;0.10;0.10;;;;;;;;;;5103082;28;20503;-54
2023/09/24 07:00:03;;;;;;;0.10;0.10;;;;;;;;;;5087681;28;20484;-54
2023/09/24 07:02:29;;;;;;;;;;;;;;;;;;5105647;28;20160;-54
2023/09/24 07:04:55;;;;;;;0.10;0.10;;;;;;;;;;5105262;28;20425;-55
2023/09/24 07:07:21;;;;;;;0.10;0.10;;;;;;;;;;5105457;28;20051;-55
2023/09/24 07:09:47;;;;;;;0.10;0.10;;;;;;;;;;5104290;28;20543;-54
2023/09/24 07:12:13;;;;;;;0.45;0.40;;;;;;;;;;5105162;28;20078;-53
2023/09/24 07:14:39;;;;;;;0.10;0.10;;;;;;;;;;5104241;28;20048;-54
2023/09/24 07:17:04;;;;;;;0.10;0.10;;;;;;;;;;5104329;28;20278;-55
2023/09/24 07:19:32;;;;;;;0.10;0.10;;;;;;;;;;5104375;28;20126;-54
2023/09/24 07:21:57;;;;;;;0.10;0.10;;;;;;;;;;5104373;28;20129;-53
2023/09/24 07:24:24;;;;;;;0.20;0.20;;;;;;;;;;5103842;28;20044;-54
2023/09/24 07:26:50;;;;;;;0.10;0.10;;;;;;;;;;5105529;28;20044;-54
2023/09/24 07:29:15;;;;;;;0.10;0.10;;;;;;;;;;5088540;28;20082;-54
2023/09/24 07:31:41;;;;;;;0.10;0.10;;;;;;;;;;5101020;28;20075;-55
2023/09/24 07:34:07;;;;;;;0.10;0.10;;;;;;;;;;5104356;28;20044;-54
2023/09/24 07:36:33;;;;;;;0.10;0.10;;;;;;;;;;5105814;28;20040;-54
2023/09/24 07:39:14;;;;;;;0.10;0.10;;;;;;;;;;5093593;28;20091;-54
2023/09/24 07:41:39;;;;;;;0.10;0.10;;;;;;;;;;5100012;28;20163;-54
2023/09/24 07:44:05;;;;;;;0.10;0.10;;;;;;;;;;5104222;28;20139;-54
2023/09/24 07:46:31;;;;;;;0.10;0.10;;;;;;;;;;5104943;28;20047;-54
2023/09/24 07:48:56;;;;;;;0.10;0.10;;;;;;;;;;5104737;28;20058;-54
2023/09/24 07:51:22;;;;;;;0.10;0.10;;;;;;;;;;5104101;28;20051;-55
2023/09/24 07:53:49;;;;;;;0.10;0.10;;;;;;;;;;5104555;28;20448;-54
2023/09/24 07:56:17;;;;;;;0.10;0.10;;;;;;;;;;5106447;28;20433;-54
2023/09/24 07:58:43;;;;;;;0.10;0.10;;;;;;;;;;5096253;28;20078;-54
2023/09/24 08:01:09;;;;;;;0.10;0.10;;;;;;;;;;5098619;28;20524;-54
2023/09/24 08:03:36;;;;;;;0.10;0.10;;;;;;;;;;5108737;28;20146;-54
2023/09/24 08:06:02;;;;;;;0.20;0.20;;;;;;;;;;5108751;28;20054;-54
2023/09/24 08:08:28;;;;;;;0.10;0.10;;;;;;;;;;5099383;28;20106;-53
2023/09/24 08:11:14;;;;;;;0.10;0.10;;;;;;;;;;5078188;28;20054;-54
2023/09/24 08:13:39;;;;;;;0.10;0.10;;;;;;;;;;5088302;28;20071;-54
2023/09/24 08:16:05;;;;;;;0.10;0.10;;;;;;;;;;5087521;28;20094;-53
2023/09/24 08:18:31;;;;;;;0.10;0.10;;;;;;;;;;5097118;28;20082;-54
2023/09/24 08:20:57;;;;;;;0.10;0.10;;;;;;;;;;5107634;28;20404;-54
2023/09/24 08:23:23;;;;;;;0.10;0.10;;;;;;;;;;5107985;28;20052;-54
2023/09/24 08:25:50;;;;;;;0.10;0.10;;;;;;;;;;5108346;28;20043;-54
2023/09/24 08:28:17;;;;;;;0.10;0.10;;;;;;;;;;5107417;28;20551;-54
2023/09/24 08:30:42;;;;;;;0.10;0.10;;;;;;;;;;5107085;28;20059;-54
2023/09/24 08:33:09;;;;;;;0.13;0.13;;;;;;;;;;5108514;28;20044;-54
2023/09/24 08:35:35;;;;;;;0.10;0.10;;;;;;;;;;5115719;28;20047;-54
2023/09/24 08:38:00;;;;;;;0.10;0.10;;;;;;;;;;5107741;28;20055;-53
2023/09/24 08:40:28;;;;;;;0.10;0.10;;;;;;;;;;5107203;28;20043;-54
2023/09/24 08:42:54;;;;;;;0.10;0.10;;;;;;;;;;5108096;28;20075;-54
2023/09/24 08:45:20;;;;;;;0.10;0.10;;;;;;;;;;5108197;28;20055;-54
2023/09/24 08:47:46;;;;;;;0.10;0.10;;;;;;;;;;5108359;28;20047;-54
2023/09/24 08:50:12;;;;;;;0.10;0.10;;;;;;;;;;5106320;28;20051;-54
2023/09/24 08:52:39;;;;;;;0.10;0.10;;;;;;;;;;5107370;28;20088;-54
2023/09/24 08:55:06;;;;;;;0.10;0.10;;;;;;;;;;5106949;28;20146;-54
2023/09/24 08:57:33;;;;;;;0.10;0.10;;;;;;;;;;5105713;28;20074;-54
2023/09/24 08:59:58;;;;;;;0.10;0.10;;;;;;;;;;5086741;28;20499;-54
2023/09/24 09:02:24;;;;;;;0.10;0.10;;;;;;;;;;5106448;28;20143;-54
2023/09/24 09:04:50;;;;;;;0.10;0.10;;;;;;;;;;5107432;28;20055;-53
2023/09/24 09:07:16;;;;;;;0.10;0.10;;;;;;;;;;5108047;28;20067;-53
2023/09/24 09:09:51;;;;;;;0.10;0.10;;;;;;;;;;5087150;28;20101;-54
2023/09/24 09:12:18;;;;;;;0.10;0.10;;;;;;;;;;5105929;28;20044;-54
2023/09/24 09:14:43;;;;;;;0.10;0.10;;;;;;;;;;5107013;28;20100;-54
2023/09/24 09:17:09;;;;;;;0.10;0.10;;;;;;;;;;5107109;28;20043;-54
2023/09/24 09:19:52;;;;;;;0.10;0.10;;;;;;;;;;5087615;28;20074;-54
2023/09/24 09:22:20;;;;;;;0.10;0.10;;;;;;;;;;5104285;28;20055;-54
2023/09/24 09:24:47;;;;;;;0.10;0.10;;;;;;;;;;5106246;28;20376;-54
2023/09/24 09:27:12;;;;;;;0.10;0.10;;;;;;;;;;5106708;28;20058;-54
2023/09/24 09:29:38;;;;;;;0.10;0.10;;;;;;;;;;5085778;28;20044;-54
2023/09/24 09:32:03;;;;;;;0.10;0.10;;;;;;;;;;5101379;28;20053;-53
2023/09/24 09:34:29;;;;;;;0.10;0.10;;;;;;;;;;5101875;28;20410;-54
2023/09/24 09:37:15;;;;;;;0.10;0.10;;;;;;;;;;5125236;28;20460;-54
2023/09/24 09:39:41;;;;;;;0.20;0.20;;;;;;;;;;5091947;28;20058;-54
2023/09/24 09:42:07;;;;;;;0.10;0.10;;;;;;;;;;5105790;28;20052;-54
2023/09/24 09:44:33;;;;;;;0.10;0.10;;;;;;;;;;5106369;28;20059;-54
2023/09/24 09:47:00;;;;;;;0.20;0.20;;;;;;;;;;5106796;28;20078;-54
2023/09/24 09:49:26;;;;;;;0.10;0.10;;;;;;;;;;5106473;28;20078;-54
2023/09/24 09:51:52;;;;;;;0.10;0.10;;;;;;;;;;5106478;28;20051;-54
2023/09/24 09:54:21;;;;;;;0.10;0.10;;;;;;;;;;5105213;28;20126;-54
2023/09/24 09:56:47;;;;;;;0.10;0.10;;;;;;;;;;5105389;28;20070;-53
2023/09/24 09:59:13;;;;;;;0.10;0.10;;;;;;;;;;5103341;28;20071;-54
2023/09/24 10:01:39;;;;;;;0.10;0.10;;;;;;;;;;5104869;28;20047;-54
2023/09/24 10:04:05;;;;;;;0.10;0.10;;;;;;;;;;5105639;28;20050;-54
2023/09/24 10:06:34;;;;;;;0.10;0.10;;;;;;;;;;5105793;28;20546;-54
2023/09/24 10:09:00;;;;;;;0.10;0.10;;;;;;;;;;5105620;28;20076;-54
2023/09/24 10:11:36;;;;;;;0.10;0.10;;;;;;;;;;5105655;28;20047;-54
2023/09/24 10:14:04;;;;;;;0.10;0.10;;;;;;;;;;5106461;28;20408;-54
2023/09/24 10:16:30;;;;;;;0.10;0.10;;;;;;;;;;5106236;28;20051;-54
2023/09/24 10:19:08;;;;;;;0.10;0.10;;;;;;;;;;5104785;28;20047;-54
2023/09/24 10:21:35;;;;;;;0.10;0.10;;;;;;;;;;5105514;28;20047;-54
2023/09/24 10:24:20;;;;;;;0.10;0.10;;;;;;;;;;5105654;28;20077;-54
2023/09/24 10:26:50;;;;;;;0.20;0.20;;;;;;;;;;5106296;28;20051;-54
2023/09/24 10:29:16;;;;;;;0.10;0.10;;;;;;;;;;5089950;28;20535;-54
2023/09/24 10:32:02;;;;;;;0.10;0.10;;;;;;;;;;5095674;28;20047;-54
2023/09/24 10:34:47;;;;;;;0.10;0.10;;;;;;;;;;5090165;28;20043;-54
2023/09/24 10:37:13;;;;;;;0.10;0.10;;;;;;;;;;5069644;28;20560;-54
2023/09/24 10:42:37;;;;;;;0.10;0.10;;;;;;;;;;5171424;27;20504;-53
2023/09/24 10:45:10;;;;;;;0.10;0.10;;;;;;;;;;5146294;27;20081;-53
2023/09/24 10:47:38;;;;;;;0.10;0.10;;;;;;;;;;5164674;27;20042;-53
2023/09/24 10:50:12;;;;;;;0.10;0.10;;;;;;;;;;5163872;27;20093;-53
2023/09/24 10:52:59;;;;;;;0.10;0.10;;;;;;;;;;5163833;27;20513;-53
2023/09/24 10:58:03;;;;;;;0.10;0.10;;;;;;;;;;5184373;27;20192;-53
2023/09/24 11:00:30;;;;;;;0.10;0.10;;;;;;;;;;5163733;27;20052;-53
2023/09/24 11:03:03;;;;;;;0.10;0.10;;;;;;;;;;5163789;27;20054;-53
2023/09/24 11:05:33;;;;;;;0.10;0.10;;;;;;;;;;5163914;27;20482;-53
2023/09/24 11:07:58;;;;;;;0.10;0.10;;;;;;;;;;5164316;27;20054;-53
2023/09/24 11:10:25;;;;;;;0.10;0.10;;;;;;;;;;5164150;27;20041;-53
2023/09/24 11:12:52;;;;;;;0.10;0.10;;;;;;;;;;5164127;27;20483;-53
2023/09/24 11:15:19;;;;;;;0.10;0.10;;;;;;;;;;5163429;27;20539;-53
2023/09/24 11:17:45;;;;;;;0.10;0.10;;;;;;;;;;5163262;27;20082;-53
2023/09/24 11:20:12;;;;;;;0.10;0.10;;;;;;;;;;5163396;27;20046;-53
2023/09/24 11:22:38;;;;;;;0.15;0.15;;;;;;;;;;5162990;27;20570;-54
2023/09/24 11:25:09;;;;;;;0.10;0.10;;;;;;;;;;5163691;27;20050;-53
2023/09/24 11:27:35;;;;;;;0.10;0.10;;;;;;;;;;5163880;27;20039;-53
2023/09/24 11:30:02;;;;;;;0.10;0.10;;;;;;;;;;5162981;27;20502;-53
2023/09/24 11:32:28;;;;;;;0.10;0.10;;;;;;;;;;5163130;27;20138;-53
2023/09/24 11:35:14;;;;;;;0.10;0.10;;;;;;;;;;5164249;27;20431;-53
2023/09/24 11:37:54;;;;;;;0.10;0.10;;;;;;;;;;5165502;27;20301;-53
2023/09/24 11:40:22;;;;;;;0.10;0.10;;;;;;;;;;5162733;27;20095;-53
2023/09/24 11:42:49;;;;;;;0.77;0.43;;;;;;;;;;5147977;27;20082;-53
2023/09/24 11:45:15;;;;;;;0.10;0.10;;;;;;;;;;5142363;27;20039;-53
2023/09/24 11:47:41;;;;;;;0.10;0.10;;;;;;;;;;5142040;27;20508;-53
2023/09/24 11:50:06;;;;;;;0.10;0.10;;;;;;;;;;5142150;27;20055;-53
2023/09/24 11:52:32;;;;;;;0.10;0.10;;;;;;;;;;5141526;27;20049;-53
2023/09/24 11:54:57;;;;;;;0.10;0.10;;;;;;;;;;5141986;27;20531;-53
2023/09/24 11:57:23;;;;;;;0.10;0.10;;;;;;;;;;5141975;27;20043;-53
2023/09/24 11:59:48;;;;;;;0.10;0.10;;;;;;;;;;5140636;27;20047;-53
2023/09/24 12:02:14;;;;;;;0.10;0.10;;;;;;;;;;5141556;27;20384;-53
2023/09/24 12:04:40;;;;;;;0.10;0.10;;;;;;;;;;5141982;27;20494;-53
2023/09/24 12:07:05;;;;;;;0.10;0.10;;;;;;;;;;5142099;27;20091;-53
2023/09/24 12:09:31;;;;;;;0.10;0.10;;;;;;;;;;5127704;27;20039;-53
2023/09/24 12:11:56;;;;;;;0.10;0.10;;;;;;;;;;5128142;28;20092;-53
2023/09/24 12:14:22;;;;;;;0.10;0.10;;;;;;;;;;5128689;28;20479;-53
2023/09/24 12:16:47;;;;;;;0.10;0.10;;;;;;;;;;5129230;28;20153;-53
2023/09/24 12:19:13;;;;;;;0.10;0.10;;;;;;;;;;5128594;28;20051;-52
2023/09/24 12:21:39;;;;;;;0.10;0.10;;;;;;;;;;5127585;28;20168;-53
2023/09/24 12:24:04;;;;;;;0.10;0.10;;;;;;;;;;5127780;28;20058;-54
2023/09/24 12:26:30;;;;;;;0.10;0.10;;;;;;;;;;5128544;28;20047;-53
2023/09/24 12:28:55;;;;;;;0.10;0.10;;;;;;;;;;5128438;28;20083;-53
2023/09/24 12:31:21;;;;;;;0.10;0.10;;;;;;;;;;5127911;28;20046;-53
2023/09/24 12:33:46;;;;;;;0.10;0.10;;;;;;;;;;5119860;27;20507;-53
2023/09/24 12:36:12;;;;;;;0.10;0.10;;;;;;;;;;5147031;27;20074;-53
2023/09/24 12:38:38;;;;;;;0.10;0.10;;;;;;;;;;5137728;27;20147;-53
2023/09/24 12:41:03;;;;;;;0.10;0.10;;;;;;;;;;5127509;28;20058;-54
2023/09/24 12:43:29;;;;;;;0.10;0.10;;;;;;;;;;5127954;27;20086;-53
2023/09/24 12:45:54;;;;;;;0.10;0.10;;;;;;;;;;5128647;28;20039;-53
2023/09/24 12:48:20;;;;;;;0.10;0.10;;;;;;;;;;5127990;28;20043;-53
2023/09/24 12:50:47;;;;;;;0.10;0.10;;;;;;;;;;5127741;28;20047;-53
2023/09/24 12:53:12;;;;;;;0.10;0.10;;;;;;;;;;5126678;28;20039;-53
2023/09/24 12:55:38;;;;;;;0.10;0.10;;;;;;;;;;5127241;28;20104;-53
2023/09/24 12:58:03;;;;;;;0.10;0.10;;;;;;;;;;5126688;28;20047;-53
2023/09/24 13:00:29;;;;;;;0.10;0.10;;;;;;;;;;5127690;28;20142;-53
2023/09/24 13:02:54;;;;;;;0.10;0.10;;;;;;;;;;5127673;28;20134;-53
2023/09/24 13:05:22;;;;;;;0.20;0.20;;;;;;;;;;5127903;28;20664;-53
2023/09/24 13:07:47;;;;;;;0.10;0.10;;;;;;;;;;5127187;28;20435;-53
2023/09/24 13:10:14;;;;;;;0.10;0.10;;;;;;;;;;5127696;28;20123;-54
2023/09/24 13:12:40;;;;;;;0.10;0.10;;;;;;;;;;5126988;28;20601;-53
2023/09/24 13:15:06;;;;;;;0.10;0.10;;;;;;;;;;5127729;28;20479;-53
2023/09/24 13:17:32;;;;;;;0.10;0.10;;;;;;;;;;5127888;28;20046;-53
2023/09/24 13:19:57;;;;;;;0.10;0.10;;;;;;;;;;5126144;27;20419;-53
2023/09/24 13:22:23;;;;;;;0.10;0.10;;;;;;;;;;5126579;28;20469;-53
2023/09/24 13:24:48;;;;;;;0.10;0.10;;;;;;;;;;5126267;28;20192;-53
2023/09/24 13:27:14;;;;;;;0.10;0.10;;;;;;;;;;5126758;28;20505;-53
2023/09/24 13:29:40;;;;;;;0.10;0.10;;;;;;;;;;5127125;28;20474;-53
2023/09/24 13:32:05;;;;;;;0.10;0.10;;;;;;;;;;5126270;27;20511;-53
2023/09/24 13:34:32;;;;;;;0.10;0.10;;;;;;;;;;5145470;27;20554;-53
2023/09/24 13:36:57;;;;;;;0.10;0.10;;;;;;;;;;5147829;27;20113;-53
2023/09/24 13:39:23;;;;;;;0.10;0.10;;;;;;;;;;5130317;27;20047;-53
2023/09/24 13:41:49;;;;;;;0.10;0.10;;;;;;;;;;5126626;27;20051;-53
2023/09/24 13:44:14;;;;;;;0.10;0.10;;;;;;;;;;5126513;28;20316;-53
2023/09/24 13:46:43;;;;;;;0.10;0.10;;;;;;;;;;5126854;28;20047;-53
2023/09/24 13:49:09;;;;;;;0.10;0.10;;;;;;;;;;5127114;28;20058;-53
2023/09/24 13:51:35;;;;;;;0.10;0.10;;;;;;;;;;5126602;28;20074;-53
2023/09/24 13:54:01;;;;;;;0.10;0.10;;;;;;;;;;5126643;28;20403;-53
2023/09/24 13:56:27;;;;;;;0.47;0.30;;;;;;;;;;5127151;28;20047;-53
2023/09/24 13:58:53;;;;;;;0.10;0.10;;;;;;;;;;5126023;28;20089;-53
2023/09/24 14:01:18;;;;;;;0.10;0.10;;;;;;;;;;5126476;28;20047;-53
2023/09/24 14:03:44;;;;;;;0.10;0.10;;;;;;;;;;5126722;28;20039;-53
2023/09/24 14:06:10;;;;;;;0.17;0.17;;;;;;;;;;5127123;28;20051;-53
2023/09/24 14:14:08;;;;;;;0.10;0.10;;;;;;;;;;5110597;28;20104;-53
2023/09/24 14:16:33;;;;;;;0.10;0.10;;;;;;;;;;5125886;28;20466;-53
2023/09/24 14:18:59;;;;;;;0.10;0.10;;;;;;;;;;5125794;28;20086;-53
2023/09/24 14:21:24;;;;;;;0.10;0.10;;;;;;;;;;5125395;28;20104;-53
2023/09/24 14:23:50;;;;;;;0.10;0.10;;;;;;;;;;5125222;28;20039;-53
2023/09/24 14:26:16;;;;;;;0.10;0.10;;;;;;;;;;5125314;28;20039;-53
2023/09/24 14:28:42;;;;;;;0.10;0.10;;;;;;;;;;5125131;28;20046;-53
2023/09/24 14:31:07;;;;;;;0.10;0.10;;;;;;;;;;5125094;27;20039;-53
2023/09/24 14:33:34;;;;;;;0.10;0.10;;;;;;;;;;5135799;27;20046;-53
2023/09/24 14:35:59;;;;;;;0.20;0.20;;;;;;;;;;5146698;27;20138;-53
2023/09/24 14:38:25;;;;;;;0.10;0.10;;;;;;;;;;5137888;27;20051;-53
2023/09/24 14:40:53;;;;;;;0.10;0.10;;;;;;;;;;5125892;28;20055;-54
2023/09/24 14:43:19;;;;;;;0.10;0.10;;;;;;;;;;5126198;27;20461;-53
2023/09/24 14:45:44;;;;;;;0.10;0.10;;;;;;;;;;5126438;28;20043;-53
2023/09/24 14:48:10;;;;;;;0.10;0.10;;;;;;;;;;5125772;28;20050;-53
2023/09/24 14:50:39;;;;;;;0.10;0.10;;;;;;;;;;5126296;28;20051;-53